Port Maitland, Canada
Current Conditions -  °F | °C
As of 12:11 AM on Thursday 27 Nov 2014 (Local Time) from CYQI Reporting Station
Heavy Rain Heavy Rain  
Wind Chill: 37°   Ceiling: 600
Heat Index: 41°   Visibility: 3mi
Dew Point: 39°   Wind: 6mph
Humidity: 93%   Direction: 50°NE
Pressure: 29.65"   Gusts: 23mph
Location:  43.97°N, 66.13°W
Report Text: CYQI 270411Z 05005G20KT 320V140 3SM +RA BR OVC006 05/04 A2965 RMK SF8 PRESRR SLP040
Loading
Personal Weather Stations






























Interactive Weather Map New forecast layout! Learn more

10-Day Weather Forecast

Advertisements
Track Severe Weather on mobile